首页
METAR-TAF:

METAR-TAF

机场 :

Wrangell, 阿拉斯加州, 美国

纬度: 56-29N, 经度: 132-22W, 海拔: 13米

当前天气观测

该预报发布于2小时和15分钟前的06:56 UTC
风速6节,风向东转东南
温度 7°C
湿度 100%
气压 984 hPa
能見度: 16.1公里
少量云层高于5500英尺
散云层高于8000英尺

METAR: PAWG 170656Z AUTO 12006KT 10SM FEW055 SCT080 07/07 A2907 RMK AO2 SLP844 T00720067 TSNO

时间: 01:11 (09:11 UTC)

预报

该预报发布于3小时和44分钟前的05:27 UTC
预报有效从17日的 06点(UTC)到 18日的 06点(UTC)
风速9节,风向东转东南
能見度: 10公里
散云层高于2500英尺
阴天层高于4000英尺
小阵雨
短暂存在
从 17日的 09点(UTC)到 17日的 13点(UTC)
能見度: 8.0公里
多云层高于2500英尺
小阵雨, 轻雾
从 17日的 1600点(UTC)
风速9节,风向东转东南
能見度: 9.7公里
多云层高于2500英尺
阴天层高于3500英尺
小阵雨, 轻雾

TAF: PAWG 170527Z 1706/1806 11009KT P6SM -SHRA SCT025 OVC040 TEMPO 1709/1713 5SM -SHRA BR BKN025 FM171600 11009KT 6SM -SHRA BR BKN025 OVC035 AMD LTD TO CLD VIS AND WIND 1706/1715

超过4000个机场的气象观测和天气预报(METAR&TAF报告)。

可查询的气象台以黄色和红色小点在地图上表示。

将鼠标移到小点上方,可查看气象台名称。

然后点击查看天气观测和预报。

如需切换地图:点击带黑十字的绿色按钮放大地图;点击带横线的绿色按钮缩小地图;或者点击绿色箭头查看邻近地区的地图。


METAR-TAF: